sensor_id;sensor_type;location;lat;lon;timestamp;P1;durP1;ratioP1;P2;durP2;ratioP2
6983;SDS011;3532;51.118;7.210;2023-03-14T00:00:20;2.93;;;2.13;;
6983;SDS011;3532;51.118;7.210;2023-03-14T00:02:45;4.63;;;2.27;;
6983;SDS011;3532;51.118;7.210;2023-03-14T00:05:11;7.43;;;2.13;;
6983;SDS011;3532;51.118;7.210;2023-03-14T00:07:37;3.17;;;2.07;;
6983;SDS011;3532;51.118;7.210;2023-03-14T00:10:03;6.03;;;2.20;;
6983;SDS011;3532;51.118;7.210;2023-03-14T00:12:30;2.40;;;1.87;;
6983;SDS011;3532;51.118;7.210;2023-03-14T00:14:56;5.53;;;2.20;;
6983;SDS011;3532;51.118;7.210;2023-03-14T00:17:21;3.23;;;2.20;;
6983;SDS011;3532;51.118;7.210;2023-03-14T00:19:48;4.77;;;2.17;;
6983;SDS011;3532;51.118;7.210;2023-03-14T00:22:17;3.57;;;2.20;;
6983;SDS011;3532;51.118;7.210;2023-03-14T00:24:42;3.67;;;2.50;;
6983;SDS011;3532;51.118;7.210;2023-03-14T00:27:08;9.53;;;2.73;;
6983;SDS011;3532;51.118;7.210;2023-03-14T00:29:33;4.13;;;2.23;;
6983;SDS011;3532;51.118;7.210;2023-03-14T00:31:58;4.93;;;2.53;;
6983;SDS011;3532;51.118;7.210;2023-03-14T00:34:26;2.63;;;2.10;;
6983;SDS011;3532;51.118;7.210;2023-03-14T00:36:54;6.30;;;2.43;;
6983;SDS011;3532;51.118;7.210;2023-03-14T00:39:19;4.17;;;1.87;;
6983;SDS011;3532;51.118;7.210;2023-03-14T00:41:44;6.13;;;2.03;;
6983;SDS011;3532;51.118;7.210;2023-03-14T00:44:10;9.50;;;2.50;;
6983;SDS011;3532;51.118;7.210;2023-03-14T00:46:35;3.30;;;1.90;;
6983;SDS011;3532;51.118;7.210;2023-03-14T00:49:00;4.53;;;2.53;;
6983;SDS011;3532;51.118;7.210;2023-03-14T00:51:26;6.97;;;2.63;;
6983;SDS011;3532;51.118;7.210;2023-03-14T00:53:51;4.23;;;2.20;;
6983;SDS011;3532;51.118;7.210;2023-03-14T00:56:16;6.43;;;2.43;;
6983;SDS011;3532;51.118;7.210;2023-03-14T00:58:42;5.53;;;2.73;;
6983;SDS011;3532;51.118;7.210;2023-03-14T01:01:08;5.23;;;2.07;;
6983;SDS011;3532;51.118;7.210;2023-03-14T01:03:34;6.43;;;2.03;;
6983;SDS011;3532;51.118;7.210;2023-03-14T01:06:08;9.87;;;2.40;;
6983;SDS011;3532;51.118;7.210;2023-03-14T01:08:35;3.53;;;2.30;;
6983;SDS011;3532;51.118;7.210;2023-03-14T01:11:04;4.87;;;2.40;;
6983;SDS011;3532;51.118;7.210;2023-03-14T01:13:33;6.57;;;2.37;;
6983;SDS011;3532;51.118;7.210;2023-03-14T01:16:03;5.10;;;2.20;;
6983;SDS011;3532;51.118;7.210;2023-03-14T01:18:30;7.73;;;2.70;;
6983;SDS011;3532;51.118;7.210;2023-03-14T01:20:55;6.93;;;2.90;;
6983;SDS011;3532;51.118;7.210;2023-03-14T01:23:20;6.03;;;2.30;;
6983;SDS011;3532;51.118;7.210;2023-03-14T01:25:46;5.47;;;1.90;;
6983;SDS011;3532;51.118;7.210;2023-03-14T01:28:11;4.10;;;1.67;;
6983;SDS011;3532;51.118;7.210;2023-03-14T01:30:36;2.63;;;1.73;;
6983;SDS011;3532;51.118;7.210;2023-03-14T01:33:02;5.73;;;2.30;;
6983;SDS011;3532;51.118;7.210;2023-03-14T01:35:27;3.70;;;2.00;;
6983;SDS011;3532;51.118;7.210;2023-03-14T01:37:52;2.73;;;1.90;;
6983;SDS011;3532;51.118;7.210;2023-03-14T01:40:18;5.07;;;2.53;;
6983;SDS011;3532;51.118;7.210;2023-03-14T01:42:52;3.70;;;1.73;;
6983;SDS011;3532;51.118;7.210;2023-03-14T01:48:22;2.60;;;1.63;;
6983;SDS011;3532;51.118;7.210;2023-03-14T01:50:47;8.13;;;1.93;;
6983;SDS011;3532;51.118;7.210;2023-03-14T01:53:13;3.30;;;1.70;;
6983;SDS011;3532;51.118;7.210;2023-03-14T01:55:39;3.70;;;1.97;;
6983;SDS011;3532;51.118;7.210;2023-03-14T01:58:04;2.03;;;1.33;;
6983;SDS011;3532;51.118;7.210;2023-03-14T02:00:30;3.00;;;1.60;;
6983;SDS011;3532;51.118;7.210;2023-03-14T02:02:57;1.80;;;1.53;;
6983;SDS011;3532;51.118;7.210;2023-03-14T02:05:25;3.43;;;1.60;;
6983;SDS011;3532;51.118;7.210;2023-03-14T02:07:53;1.70;;;1.50;;
6983;SDS011;3532;51.118;7.210;2023-03-14T02:10:21;1.70;;;1.50;;
6983;SDS011;3532;51.118;7.210;2023-03-14T02:12:48;5.30;;;1.70;;
6983;SDS011;3532;51.118;7.210;2023-03-14T02:15:14;2.10;;;1.47;;
6983;SDS011;3532;51.118;7.210;2023-03-14T02:17:43;4.07;;;1.57;;
6983;SDS011;3532;51.118;7.210;2023-03-14T02:22:37;4.10;;;2.00;;
6983;SDS011;3532;51.118;7.210;2023-03-14T02:28:06;3.47;;;1.50;;
6983;SDS011;3532;51.118;7.210;2023-03-14T02:30:32;2.13;;;1.50;;
6983;SDS011;3532;51.118;7.210;2023-03-14T02:33:04;5.77;;;1.90;;
6983;SDS011;3532;51.118;7.210;2023-03-14T02:35:33;7.30;;;2.40;;
6983;SDS011;3532;51.118;7.210;2023-03-14T02:40:50;6.70;;;2.77;;
6983;SDS011;3532;51.118;7.210;2023-03-14T02:43:15;6.53;;;1.93;;
6983;SDS011;3532;51.118;7.210;2023-03-14T02:45:45;8.47;;;2.90;;
6983;SDS011;3532;51.118;7.210;2023-03-14T02:48:18;6.23;;;2.47;;
6983;SDS011;3532;51.118;7.210;2023-03-14T02:50:50;6.53;;;2.47;;
6983;SDS011;3532;51.118;7.210;2023-03-14T02:53:18;6.97;;;2.30;;
6983;SDS011;3532;51.118;7.210;2023-03-14T02:55:49;2.33;;;1.73;;
6983;SDS011;3532;51.118;7.210;2023-03-14T02:58:14;3.87;;;1.60;;
6983;SDS011;3532;51.118;7.210;2023-03-14T03:00:40;4.07;;;1.93;;
6983;SDS011;3532;51.118;7.210;2023-03-14T03:03:05;4.10;;;1.87;;
6983;SDS011;3532;51.118;7.210;2023-03-14T03:05:31;4.10;;;1.67;;
6983;SDS011;3532;51.118;7.210;2023-03-14T03:07:56;2.87;;;1.90;;
6983;SDS011;3532;51.118;7.210;2023-03-14T03:10:22;4.13;;;1.70;;
6983;SDS011;3532;51.118;7.210;2023-03-14T03:12:47;6.40;;;1.97;;
6983;SDS011;3532;51.118;7.210;2023-03-14T03:15:13;3.67;;;2.00;;
6983;SDS011;3532;51.118;7.210;2023-03-14T03:17:38;3.80;;;2.03;;
6983;SDS011;3532;51.118;7.210;2023-03-14T03:20:03;2.23;;;1.70;;
6983;SDS011;3532;51.118;7.210;2023-03-14T03:22:30;3.97;;;2.03;;
6983;SDS011;3532;51.118;7.210;2023-03-14T03:24:55;3.93;;;1.90;;
6983;SDS011;3532;51.118;7.210;2023-03-14T03:27:21;3.83;;;1.97;;
6983;SDS011;3532;51.118;7.210;2023-03-14T03:29:46;6.00;;;2.13;;
6983;SDS011;3532;51.118;7.210;2023-03-14T03:32:12;4.13;;;2.03;;
6983;SDS011;3532;51.118;7.210;2023-03-14T03:34:37;2.90;;;1.70;;
6983;SDS011;3532;51.118;7.210;2023-03-14T03:37:03;4.73;;;2.03;;
6983;SDS011;3532;51.118;7.210;2023-03-14T03:39:28;3.50;;;1.90;;
6983;SDS011;3532;51.118;7.210;2023-03-14T03:41:53;3.80;;;2.50;;
6983;SDS011;3532;51.118;7.210;2023-03-14T03:44:18;5.87;;;2.03;;
6983;SDS011;3532;51.118;7.210;2023-03-14T03:46:44;3.93;;;2.07;;
6983;SDS011;3532;51.118;7.210;2023-03-14T03:49:09;7.07;;;2.30;;
6983;SDS011;3532;51.118;7.210;2023-03-14T03:51:34;8.53;;;2.50;;
6983;SDS011;3532;51.118;7.210;2023-03-14T03:54:00;5.33;;;2.50;;
6983;SDS011;3532;51.118;7.210;2023-03-14T03:56:25;6.23;;;2.60;;
6983;SDS011;3532;51.118;7.210;2023-03-14T03:58:50;3.37;;;2.63;;
6983;SDS011;3532;51.118;7.210;2023-03-14T04:01:16;4.03;;;2.30;;
6983;SDS011;3532;51.118;7.210;2023-03-14T04:03:41;5.90;;;2.80;;
6983;SDS011;3532;51.118;7.210;2023-03-14T04:06:11;5.73;;;2.77;;
6983;SDS011;3532;51.118;7.210;2023-03-14T04:08:37;3.60;;;2.27;;
6983;SDS011;3532;51.118;7.210;2023-03-14T04:11:04;8.73;;;2.67;;
6983;SDS011;3532;51.118;7.210;2023-03-14T04:13:29;5.27;;;2.47;;
6983;SDS011;3532;51.118;7.210;2023-03-14T04:15:55;6.17;;;2.43;;
6983;SDS011;3532;51.118;7.210;2023-03-14T04:18:21;7.73;;;2.80;;
6983;SDS011;3532;51.118;7.210;2023-03-14T04:20:56;7.90;;;2.83;;
6983;SDS011;3532;51.118;7.210;2023-03-14T04:23:22;5.87;;;2.57;;
6983;SDS011;3532;51.118;7.210;2023-03-14T04:25:51;6.10;;;2.30;;
6983;SDS011;3532;51.118;7.210;2023-03-14T04:28:17;7.83;;;2.50;;
6983;SDS011;3532;51.118;7.210;2023-03-14T04:30:43;6.13;;;2.70;;
6983;SDS011;3532;51.118;7.210;2023-03-14T04:33:08;8.57;;;2.57;;
6983;SDS011;3532;51.118;7.210;2023-03-14T04:35:34;5.87;;;2.40;;
6983;SDS011;3532;51.118;7.210;2023-03-14T04:37:59;7.87;;;2.80;;
6983;SDS011;3532;51.118;7.210;2023-03-14T04:40:25;7.70;;;2.87;;
6983;SDS011;3532;51.118;7.210;2023-03-14T04:42:50;13.57;;;3.50;;
6983;SDS011;3532;51.118;7.210;2023-03-14T04:45:16;5.63;;;3.27;;
6983;SDS011;3532;51.118;7.210;2023-03-14T04:47:41;6.80;;;2.67;;
6983;SDS011;3532;51.118;7.210;2023-03-14T04:50:07;4.77;;;2.40;;
6983;SDS011;3532;51.118;7.210;2023-03-14T04:52:33;6.53;;;2.93;;
6983;SDS011;3532;51.118;7.210;2023-03-14T04:54:58;5.83;;;2.40;;
6983;SDS011;3532;51.118;7.210;2023-03-14T04:57:24;8.67;;;2.50;;
6983;SDS011;3532;51.118;7.210;2023-03-14T04:59:49;7.10;;;3.07;;
6983;SDS011;3532;51.118;7.210;2023-03-14T05:02:14;6.13;;;2.40;;
6983;SDS011;3532;51.118;7.210;2023-03-14T05:04:40;4.80;;;2.70;;
6983;SDS011;3532;51.118;7.210;2023-03-14T05:07:05;4.67;;;2.20;;
6983;SDS011;3532;51.118;7.210;2023-03-14T05:09:30;8.40;;;2.63;;
6983;SDS011;3532;51.118;7.210;2023-03-14T05:11:55;6.50;;;2.87;;
6983;SDS011;3532;51.118;7.210;2023-03-14T05:14:21;7.20;;;2.30;;
6983;SDS011;3532;51.118;7.210;2023-03-14T05:16:46;6.70;;;2.30;;
6983;SDS011;3532;51.118;7.210;2023-03-14T05:19:11;6.07;;;2.80;;
6983;SDS011;3532;51.118;7.210;2023-03-14T05:21:37;6.03;;;2.60;;
6983;SDS011;3532;51.118;7.210;2023-03-14T05:24:02;5.57;;;2.47;;
6983;SDS011;3532;51.118;7.210;2023-03-14T05:26:28;7.50;;;2.17;;
6983;SDS011;3532;51.118;7.210;2023-03-14T05:28:54;8.47;;;2.93;;
6983;SDS011;3532;51.118;7.210;2023-03-14T05:31:19;10.13;;;3.13;;
6983;SDS011;3532;51.118;7.210;2023-03-14T05:33:44;4.13;;;2.10;;
6983;SDS011;3532;51.118;7.210;2023-03-14T05:36:09;4.10;;;2.03;;
6983;SDS011;3532;51.118;7.210;2023-03-14T05:38:35;4.23;;;2.13;;
6983;SDS011;3532;51.118;7.210;2023-03-14T05:41:00;7.60;;;2.03;;
6983;SDS011;3532;51.118;7.210;2023-03-14T05:43:25;3.70;;;2.23;;
6983;SDS011;3532;51.118;7.210;2023-03-14T05:45:51;3.43;;;2.20;;
6983;SDS011;3532;51.118;7.210;2023-03-14T05:48:16;5.67;;;1.90;;
6983;SDS011;3532;51.118;7.210;2023-03-14T05:50:42;4.33;;;2.17;;
6983;SDS011;3532;51.118;7.210;2023-03-14T05:53:07;4.03;;;2.13;;
6983;SDS011;3532;51.118;7.210;2023-03-14T05:55:32;3.03;;;1.63;;
6983;SDS011;3532;51.118;7.210;2023-03-14T05:57:58;3.53;;;1.87;;
6983;SDS011;3532;51.118;7.210;2023-03-14T06:00:23;3.73;;;1.70;;
6983;SDS011;3532;51.118;7.210;2023-03-14T06:02:48;5.50;;;2.17;;
6983;SDS011;3532;51.118;7.210;2023-03-14T06:05:14;5.40;;;1.70;;
6983;SDS011;3532;51.118;7.210;2023-03-14T06:07:39;3.43;;;1.83;;
6983;SDS011;3532;51.118;7.210;2023-03-14T06:10:04;2.10;;;1.90;;
6983;SDS011;3532;51.118;7.210;2023-03-14T06:12:30;2.77;;;1.60;;
6983;SDS011;3532;51.118;7.210;2023-03-14T06:14:55;1.63;;;1.50;;
6983;SDS011;3532;51.118;7.210;2023-03-14T06:17:21;3.00;;;1.50;;
6983;SDS011;3532;51.118;7.210;2023-03-14T06:19:46;4.33;;;1.87;;
6983;SDS011;3532;51.118;7.210;2023-03-14T06:22:11;2.07;;;1.63;;
6983;SDS011;3532;51.118;7.210;2023-03-14T06:24:37;2.33;;;1.40;;
6983;SDS011;3532;51.118;7.210;2023-03-14T06:27:02;2.00;;;1.80;;
6983;SDS011;3532;51.118;7.210;2023-03-14T06:29:28;1.43;;;1.23;;
6983;SDS011;3532;51.118;7.210;2023-03-14T06:31:54;2.13;;;1.30;;
6983;SDS011;3532;51.118;7.210;2023-03-14T06:34:19;1.50;;;1.30;;
6983;SDS011;3532;51.118;7.210;2023-03-14T06:36:44;2.47;;;1.33;;
6983;SDS011;3532;51.118;7.210;2023-03-14T06:39:10;2.30;;;1.27;;
6983;SDS011;3532;51.118;7.210;2023-03-14T06:41:35;1.60;;;1.10;;
6983;SDS011;3532;51.118;7.210;2023-03-14T06:44:00;1.43;;;1.27;;
6983;SDS011;3532;51.118;7.210;2023-03-14T06:46:26;1.47;;;1.37;;
6983;SDS011;3532;51.118;7.210;2023-03-14T06:48:51;1.57;;;1.30;;
6983;SDS011;3532;51.118;7.210;2023-03-14T06:51:16;1.93;;;1.20;;
6983;SDS011;3532;51.118;7.210;2023-03-14T06:53:42;1.50;;;1.40;;
6983;SDS011;3532;51.118;7.210;2023-03-14T06:56:07;2.70;;;1.27;;
6983;SDS011;3532;51.118;7.210;2023-03-14T06:58:33;1.73;;;1.40;;
6983;SDS011;3532;51.118;7.210;2023-03-14T07:00:58;1.57;;;1.47;;
6983;SDS011;3532;51.118;7.210;2023-03-14T07:03:23;1.50;;;1.40;;
6983;SDS011;3532;51.118;7.210;2023-03-14T07:05:49;1.60;;;1.50;;
6983;SDS011;3532;51.118;7.210;2023-03-14T07:08:14;1.63;;;1.40;;
6983;SDS011;3532;51.118;7.210;2023-03-14T07:10:40;1.93;;;1.30;;
6983;SDS011;3532;51.118;7.210;2023-03-14T07:13:05;1.93;;;1.40;;
6983;SDS011;3532;51.118;7.210;2023-03-14T07:15:30;1.50;;;1.40;;
6983;SDS011;3532;51.118;7.210;2023-03-14T07:17:56;1.80;;;1.60;;
6983;SDS011;3532;51.118;7.210;2023-03-14T07:20:21;1.60;;;1.27;;
6983;SDS011;3532;51.118;7.210;2023-03-14T07:22:47;1.43;;;1.33;;
6983;SDS011;3532;51.118;7.210;2023-03-14T07:25:14;1.30;;;1.20;;
6983;SDS011;3532;51.118;7.210;2023-03-14T07:27:39;1.30;;;1.20;;
6983;SDS011;3532;51.118;7.210;2023-03-14T07:30:05;1.40;;;1.00;;
6983;SDS011;3532;51.118;7.210;2023-03-14T07:32:30;2.40;;;1.27;;
6983;SDS011;3532;51.118;7.210;2023-03-14T07:34:56;1.70;;;1.40;;
6983;SDS011;3532;51.118;7.210;2023-03-14T07:37:21;3.50;;;1.20;;
6983;SDS011;3532;51.118;7.210;2023-03-14T07:39:46;1.37;;;1.20;;
6983;SDS011;3532;51.118;7.210;2023-03-14T07:42:11;2.13;;;1.40;;
6983;SDS011;3532;51.118;7.210;2023-03-14T07:44:37;1.50;;;1.40;;
6983;SDS011;3532;51.118;7.210;2023-03-14T07:47:02;1.90;;;1.30;;
6983;SDS011;3532;51.118;7.210;2023-03-14T07:49:28;1.50;;;1.40;;
6983;SDS011;3532;51.118;7.210;2023-03-14T07:51:53;1.30;;;1.20;;
6983;SDS011;3532;51.118;7.210;2023-03-14T07:54:18;2.30;;;1.20;;
6983;SDS011;3532;51.118;7.210;2023-03-14T07:56:44;1.50;;;1.40;;
6983;SDS011;3532;51.118;7.210;2023-03-14T07:59:09;1.17;;;1.13;;
6983;SDS011;3532;51.118;7.210;2023-03-14T08:01:35;1.77;;;1.10;;
6983;SDS011;3532;51.118;7.210;2023-03-14T08:04:01;1.73;;;1.63;;
6983;SDS011;3532;51.118;7.210;2023-03-14T08:06:26;1.33;;;1.10;;
6983;SDS011;3532;51.118;7.210;2023-03-14T08:08:52;1.47;;;1.23;;
6983;SDS011;3532;51.118;7.210;2023-03-14T08:11:17;1.53;;;1.30;;
6983;SDS011;3532;51.118;7.210;2023-03-14T08:13:42;1.30;;;1.20;;
6983;SDS011;3532;51.118;7.210;2023-03-14T08:16:14;1.50;;;1.40;;
6983;SDS011;3532;51.118;7.210;2023-03-14T08:18:39;2.77;;;2.00;;
6983;SDS011;3532;51.118;7.210;2023-03-14T08:21:05;1.60;;;1.50;;
6983;SDS011;3532;51.118;7.210;2023-03-14T08:23:30;2.27;;;1.80;;
6983;SDS011;3532;51.118;7.210;2023-03-14T08:25:55;1.80;;;1.70;;
6983;SDS011;3532;51.118;7.210;2023-03-14T08:28:21;2.30;;;1.93;;
6983;SDS011;3532;51.118;7.210;2023-03-14T08:30:46;2.13;;;1.80;;
6983;SDS011;3532;51.118;7.210;2023-03-14T08:33:11;1.57;;;1.40;;
6983;SDS011;3532;51.118;7.210;2023-03-14T08:35:37;1.50;;;1.40;;
6983;SDS011;3532;51.118;7.210;2023-03-14T08:38:03;1.80;;;1.40;;
6983;SDS011;3532;51.118;7.210;2023-03-14T08:40:28;1.50;;;1.40;;
6983;SDS011;3532;51.118;7.210;2023-03-14T08:42:53;1.73;;;1.40;;
6983;SDS011;3532;51.118;7.210;2023-03-14T08:45:19;3.07;;;1.47;;
6983;SDS011;3532;51.118;7.210;2023-03-14T08:47:44;1.60;;;1.37;;
6983;SDS011;3532;51.118;7.210;2023-03-14T08:50:10;1.33;;;1.23;;
6983;SDS011;3532;51.118;7.210;2023-03-14T08:52:36;1.60;;;1.50;;
6983;SDS011;3532;51.118;7.210;2023-03-14T08:55:02;2.00;;;1.50;;
6983;SDS011;3532;51.118;7.210;2023-03-14T08:57:28;2.20;;;1.60;;
6983;SDS011;3532;51.118;7.210;2023-03-14T08:59:54;3.03;;;1.73;;
6983;SDS011;3532;51.118;7.210;2023-03-14T09:02:20;1.60;;;1.50;;
6983;SDS011;3532;51.118;7.210;2023-03-14T09:04:45;1.70;;;1.60;;
6983;SDS011;3532;51.118;7.210;2023-03-14T09:07:11;1.67;;;1.57;;
6983;SDS011;3532;51.118;7.210;2023-03-14T09:09:36;1.60;;;1.50;;
6983;SDS011;3532;51.118;7.210;2023-03-14T09:12:01;2.03;;;1.93;;
6983;SDS011;3532;51.118;7.210;2023-03-14T09:14:27;1.90;;;1.80;;
6983;SDS011;3532;51.118;7.210;2023-03-14T09:16:52;2.00;;;1.80;;
6983;SDS011;3532;51.118;7.210;2023-03-14T09:19:17;2.53;;;2.33;;
6983;SDS011;3532;51.118;7.210;2023-03-14T09:21:43;2.40;;;2.20;;
6983;SDS011;3532;51.118;7.210;2023-03-14T09:24:08;2.00;;;1.80;;
6983;SDS011;3532;51.118;7.210;2023-03-14T09:26:33;2.23;;;2.00;;
6983;SDS011;3532;51.118;7.210;2023-03-14T09:28:59;2.00;;;1.80;;
6983;SDS011;3532;51.118;7.210;2023-03-14T09:31:24;2.10;;;1.90;;
6983;SDS011;3532;51.118;7.210;2023-03-14T09:33:49;3.03;;;1.93;;
6983;SDS011;3532;51.118;7.210;2023-03-14T09:36:15;2.80;;;2.07;;
6983;SDS011;3532;51.118;7.210;2023-03-14T09:38:40;4.30;;;1.80;;
6983;SDS011;3532;51.118;7.210;2023-03-14T09:41:16;2.60;;;2.00;;
6983;SDS011;3532;51.118;7.210;2023-03-14T09:43:43;3.30;;;2.20;;
6983;SDS011;3532;51.118;7.210;2023-03-14T09:46:10;2.83;;;2.53;;
6983;SDS011;3532;51.118;7.210;2023-03-14T09:48:36;2.30;;;2.10;;
6983;SDS011;3532;51.118;7.210;2023-03-14T09:51:03;2.37;;;2.17;;
6983;SDS011;3532;51.118;7.210;2023-03-14T09:53:44;2.03;;;1.93;;
6983;SDS011;3532;51.118;7.210;2023-03-14T09:56:12;1.53;;;1.43;;
6983;SDS011;3532;51.118;7.210;2023-03-14T09:58:40;1.50;;;1.40;;
6983;SDS011;3532;51.118;7.210;2023-03-14T10:01:07;1.40;;;1.30;;
6983;SDS011;3532;51.118;7.210;2023-03-14T10:03:36;1.23;;;1.10;;
6983;SDS011;3532;51.118;7.210;2023-03-14T10:06:01;1.37;;;1.27;;
6983;SDS011;3532;51.118;7.210;2023-03-14T10:08:27;1.13;;;1.00;;
6983;SDS011;3532;51.118;7.210;2023-03-14T10:10:52;1.63;;;1.20;;
6983;SDS011;3532;51.118;7.210;2023-03-14T10:13:23;1.40;;;1.30;;
6983;SDS011;3532;51.118;7.210;2023-03-14T10:15:55;1.60;;;1.50;;
6983;SDS011;3532;51.118;7.210;2023-03-14T10:18:25;2.53;;;1.57;;
6983;SDS011;3532;51.118;7.210;2023-03-14T10:21:38;1.80;;;1.70;;
6983;SDS011;3532;51.118;7.210;2023-03-14T10:23:51;1.40;;;1.30;;
6983;SDS011;3532;51.118;7.210;2023-03-14T10:26:17;1.80;;;1.70;;
6983;SDS011;3532;51.118;7.210;2023-03-14T10:28:45;1.93;;;1.83;;
6983;SDS011;3532;51.118;7.210;2023-03-14T10:31:17;1.47;;;1.37;;
6983;SDS011;3532;51.118;7.210;2023-03-14T10:33:43;2.73;;;1.70;;
6983;SDS011;3532;51.118;7.210;2023-03-14T10:36:23;2.93;;;1.53;;
6983;SDS011;3532;51.118;7.210;2023-03-14T10:38:51;1.80;;;1.70;;
6983;SDS011;3532;51.118;7.210;2023-03-14T10:41:26;2.57;;;1.83;;
6983;SDS011;3532;51.118;7.210;2023-03-14T10:43:58;1.70;;;1.60;;
6983;SDS011;3532;51.118;7.210;2023-03-14T10:46:25;2.30;;;2.10;;
6983;SDS011;3532;51.118;7.210;2023-03-14T10:48:51;3.87;;;2.07;;
6983;SDS011;3532;51.118;7.210;2023-03-14T10:53:45;3.13;;;2.00;;
6983;SDS011;3532;51.118;7.210;2023-03-14T10:56:13;2.47;;;2.27;;
6983;SDS011;3532;51.118;7.210;2023-03-14T10:58:40;3.43;;;2.60;;
6983;SDS011;3532;51.118;7.210;2023-03-14T11:04:44;1.80;;;1.70;;
6983;SDS011;3532;51.118;7.210;2023-03-14T11:15:15;2.57;;;2.37;;
6983;SDS011;3532;51.118;7.210;2023-03-14T11:17:55;3.73;;;2.60;;
6983;SDS011;3532;51.118;7.210;2023-03-14T11:20:46;2.63;;;2.43;;
6983;SDS011;3532;51.118;7.210;2023-03-14T11:23:24;2.23;;;2.13;;
6983;SDS011;3532;51.118;7.210;2023-03-14T11:25:56;2.67;;;2.47;;
6983;SDS011;3532;51.118;7.210;2023-03-14T11:28:41;3.53;;;2.83;;
6983;SDS011;3532;51.118;7.210;2023-03-14T11:33:50;4.63;;;3.47;;
6983;SDS011;3532;51.118;7.210;2023-03-14T11:36:25;2.77;;;2.57;;
6983;SDS011;3532;51.118;7.210;2023-03-14T11:38:57;3.30;;;3.00;;
6983;SDS011;3532;51.118;7.210;2023-03-14T11:41:29;3.13;;;2.80;;
6983;SDS011;3532;51.118;7.210;2023-03-14T11:43:57;3.67;;;3.03;;
6983;SDS011;3532;51.118;7.210;2023-03-14T11:46:25;4.60;;;3.30;;
6983;SDS011;3532;51.118;7.210;2023-03-14T11:51:42;5.20;;;3.40;;
6983;SDS011;3532;51.118;7.210;2023-03-14T11:56:48;4.60;;;3.87;;
6983;SDS011;3532;51.118;7.210;2023-03-14T11:59:21;4.20;;;3.67;;
6983;SDS011;3532;51.118;7.210;2023-03-14T12:01:57;4.70;;;3.97;;
6983;SDS011;3532;51.118;7.210;2023-03-14T12:07:13;4.20;;;3.90;;
6983;SDS011;3532;51.118;7.210;2023-03-14T12:09:46;4.43;;;4.03;;
6983;SDS011;3532;51.118;7.210;2023-03-14T12:12:14;5.27;;;3.60;;
6983;SDS011;3532;51.118;7.210;2023-03-14T12:14:50;3.60;;;3.30;;
6983;SDS011;3532;51.118;7.210;2023-03-14T12:17:21;3.93;;;2.50;;
6983;SDS011;3532;51.118;7.210;2023-03-14T12:19:58;4.03;;;3.07;;
6983;SDS011;3532;51.118;7.210;2023-03-14T12:22:27;3.20;;;2.83;;
6983;SDS011;3532;51.118;7.210;2023-03-14T12:24:58;2.50;;;2.30;;
6983;SDS011;3532;51.118;7.210;2023-03-14T12:27:42;2.83;;;2.57;;
6983;SDS011;3532;51.118;7.210;2023-03-14T12:30:28;2.10;;;2.00;;
6983;SDS011;3532;51.118;7.210;2023-03-14T12:38:25;2.30;;;2.10;;
6983;SDS011;3532;51.118;7.210;2023-03-14T12:41:36;3.27;;;2.00;;
6983;SDS011;3532;51.118;7.210;2023-03-14T12:46:57;4.87;;;2.30;;
6983;SDS011;3532;51.118;7.210;2023-03-14T12:49:41;4.80;;;2.43;;
6983;SDS011;3532;51.118;7.210;2023-03-14T12:52:12;4.17;;;2.10;;
6983;SDS011;3532;51.118;7.210;2023-03-14T12:57:20;2.43;;;2.23;;
6983;SDS011;3532;51.118;7.210;2023-03-14T12:59:51;2.13;;;1.93;;
6983;SDS011;3532;51.118;7.210;2023-03-14T13:02:19;2.37;;;2.07;;
6983;SDS011;3532;51.118;7.210;2023-03-14T13:04:51;2.60;;;2.40;;
6983;SDS011;3532;51.118;7.210;2023-03-14T13:08:13;2.40;;;2.20;;
6983;SDS011;3532;51.118;7.210;2023-03-14T13:10:20;3.67;;;2.07;;
6983;SDS011;3532;51.118;7.210;2023-03-14T13:13:02;3.13;;;2.37;;
6983;SDS011;3532;51.118;7.210;2023-03-14T13:15:43;2.30;;;2.10;;
6983;SDS011;3532;51.118;7.210;2023-03-14T13:18:11;4.23;;;2.13;;
6983;SDS011;3532;51.118;7.210;2023-03-14T13:20:50;6.37;;;2.53;;
6983;SDS011;3532;51.118;7.210;2023-03-14T13:23:24;2.90;;;2.30;;
6983;SDS011;3532;51.118;7.210;2023-03-14T13:25:51;4.17;;;2.60;;
6983;SDS011;3532;51.118;7.210;2023-03-14T13:28:16;4.27;;;2.37;;
6983;SDS011;3532;51.118;7.210;2023-03-14T13:30:46;4.17;;;2.93;;
6983;SDS011;3532;51.118;7.210;2023-03-14T13:33:19;4.53;;;2.73;;
6983;SDS011;3532;51.118;7.210;2023-03-14T13:35:47;6.03;;;2.60;;
6983;SDS011;3532;51.118;7.210;2023-03-14T13:38:25;7.67;;;3.40;;
6983;SDS011;3532;51.118;7.210;2023-03-14T13:40:54;4.67;;;3.87;;
6983;SDS011;3532;51.118;7.210;2023-03-14T13:43:25;13.63;;;5.10;;
6983;SDS011;3532;51.118;7.210;2023-03-14T13:45:53;9.07;;;4.97;;
6983;SDS011;3532;51.118;7.210;2023-03-14T13:48:20;7.43;;;4.50;;
6983;SDS011;3532;51.118;7.210;2023-03-14T13:50:49;12.60;;;3.83;;
6983;SDS011;3532;51.118;7.210;2023-03-14T13:53:16;7.10;;;3.43;;
6983;SDS011;3532;51.118;7.210;2023-03-14T13:55:42;10.03;;;3.57;;
6983;SDS011;3532;51.118;7.210;2023-03-14T13:58:11;4.83;;;3.00;;
6983;SDS011;3532;51.118;7.210;2023-03-14T14:00:44;12.10;;;3.23;;
6983;SDS011;3532;51.118;7.210;2023-03-14T14:03:19;7.70;;;3.53;;
6983;SDS011;3532;51.118;7.210;2023-03-14T14:05:44;10.10;;;4.33;;
6983;SDS011;3532;51.118;7.210;2023-03-14T14:08:11;9.70;;;5.27;;
6983;SDS011;3532;51.118;7.210;2023-03-14T14:10:37;11.20;;;5.40;;
6983;SDS011;3532;51.118;7.210;2023-03-14T14:13:03;11.60;;;5.73;;
6983;SDS011;3532;51.118;7.210;2023-03-14T14:15:30;13.57;;;4.27;;
6983;SDS011;3532;51.118;7.210;2023-03-14T14:18:01;8.90;;;4.83;;
6983;SDS011;3532;51.118;7.210;2023-03-14T14:20:33;5.90;;;3.80;;
6983;SDS011;3532;51.118;7.210;2023-03-14T14:23:01;11.07;;;3.10;;
6983;SDS011;3532;51.118;7.210;2023-03-14T14:25:31;17.60;;;5.77;;
6983;SDS011;3532;51.118;7.210;2023-03-14T14:27:56;8.67;;;4.17;;
6983;SDS011;3532;51.118;7.210;2023-03-14T14:33:10;8.57;;;3.43;;
6983;SDS011;3532;51.118;7.210;2023-03-14T14:35:58;11.23;;;4.27;;
6983;SDS011;3532;51.118;7.210;2023-03-14T14:38:25;8.43;;;3.73;;
6983;SDS011;3532;51.118;7.210;2023-03-14T14:40:51;5.97;;;3.60;;
6983;SDS011;3532;51.118;7.210;2023-03-14T14:43:21;9.20;;;3.83;;
6983;SDS011;3532;51.118;7.210;2023-03-14T14:45:48;7.70;;;3.30;;
6983;SDS011;3532;51.118;7.210;2023-03-14T14:48:17;16.47;;;4.80;;
6983;SDS011;3532;51.118;7.210;2023-03-14T14:53:28;11.27;;;3.50;;
6983;SDS011;3532;51.118;7.210;2023-03-14T14:55:56;16.93;;;4.50;;
6983;SDS011;3532;51.118;7.210;2023-03-14T15:03:36;14.20;;;4.43;;
6983;SDS011;3532;51.118;7.210;2023-03-14T15:06:02;13.10;;;4.63;;
6983;SDS011;3532;51.118;7.210;2023-03-14T15:08:28;12.00;;;4.07;;
6983;SDS011;3532;51.118;7.210;2023-03-14T15:10:54;11.07;;;4.47;;
6983;SDS011;3532;51.118;7.210;2023-03-14T15:13:20;13.03;;;4.53;;
6983;SDS011;3532;51.118;7.210;2023-03-14T15:15:46;10.90;;;3.90;;
6983;SDS011;3532;51.118;7.210;2023-03-14T15:18:12;13.63;;;4.37;;
6983;SDS011;3532;51.118;7.210;2023-03-14T15:20:40;11.23;;;3.77;;
6983;SDS011;3532;51.118;7.210;2023-03-14T15:23:11;9.47;;;4.63;;
6983;SDS011;3532;51.118;7.210;2023-03-14T15:25:38;16.13;;;5.63;;
6983;SDS011;3532;51.118;7.210;2023-03-14T15:28:26;10.53;;;4.07;;
6983;SDS011;3532;51.118;7.210;2023-03-14T15:30:54;7.47;;;3.70;;
6983;SDS011;3532;51.118;7.210;2023-03-14T15:33:21;13.53;;;3.73;;
6983;SDS011;3532;51.118;7.210;2023-03-14T15:35:47;11.60;;;3.70;;
6983;SDS011;3532;51.118;7.210;2023-03-14T15:38:14;8.63;;;3.53;;
6983;SDS011;3532;51.118;7.210;2023-03-14T15:40:41;7.53;;;2.93;;
6983;SDS011;3532;51.118;7.210;2023-03-14T15:43:06;13.03;;;3.43;;
6983;SDS011;3532;51.118;7.210;2023-03-14T15:45:32;6.57;;;2.90;;
6983;SDS011;3532;51.118;7.210;2023-03-14T15:47:57;7.00;;;2.60;;
6983;SDS011;3532;51.118;7.210;2023-03-14T15:50:23;7.50;;;2.90;;
6983;SDS011;3532;51.118;7.210;2023-03-14T15:52:50;8.63;;;3.10;;
6983;SDS011;3532;51.118;7.210;2023-03-14T15:55:15;9.40;;;3.03;;
6983;SDS011;3532;51.118;7.210;2023-03-14T15:57:42;11.00;;;3.57;;
6983;SDS011;3532;51.118;7.210;2023-03-14T16:00:10;8.10;;;3.20;;
6983;SDS011;3532;51.118;7.210;2023-03-14T16:02:39;8.33;;;3.80;;
6983;SDS011;3532;51.118;7.210;2023-03-14T16:05:06;12.43;;;3.50;;
6983;SDS011;3532;51.118;7.210;2023-03-14T16:07:33;9.20;;;3.03;;
6983;SDS011;3532;51.118;7.210;2023-03-14T16:09:58;10.17;;;3.30;;
6983;SDS011;3532;51.118;7.210;2023-03-14T16:12:23;6.20;;;3.13;;
6983;SDS011;3532;51.118;7.210;2023-03-14T16:14:49;10.87;;;3.33;;